sensor_id;sensor_type;location;lat;lon;timestamp;pressure;altitude;pressure_sealevel;temperature
63158;BMP280;49381;49.338;8.794;2022-09-20T00:01:06;100797.09;;;12.00
63158;BMP280;49381;49.338;8.794;2022-09-20T00:03:08;100792.88;;;11.99
63158;BMP280;49381;49.338;8.794;2022-09-20T00:05:09;100791.97;;;11.97
63158;BMP280;49381;49.338;8.794;2022-09-20T00:07:10;100808.81;;;11.84
63158;BMP280;49381;49.338;8.794;2022-09-20T00:09:10;100809.69;;;11.86
63158;BMP280;49381;49.338;8.794;2022-09-20T00:11:12;100797.03;;;11.91
63158;BMP280;49381;49.338;8.794;2022-09-20T00:13:13;100807.13;;;11.88
63158;BMP280;49381;49.338;8.794;2022-09-20T00:15:13;100807.13;;;11.88
63158;BMP280;49381;49.338;8.794;2022-09-20T00:17:14;100802.06;;;11.85
63158;BMP280;49381;49.338;8.794;2022-09-20T00:19:17;100802.03;;;11.82
63158;BMP280;49381;49.338;8.794;2022-09-20T00:21:21;100796.09;;;11.81
63158;BMP280;49381;49.338;8.794;2022-09-20T00:23:21;100802.81;;;11.75
63158;BMP280;49381;49.338;8.794;2022-09-20T00:25:22;100796.88;;;11.76
63158;BMP280;49381;49.338;8.794;2022-09-20T00:27:22;100789.31;;;11.82
63158;BMP280;49381;49.338;8.794;2022-09-20T00:29:22;100802.00;;;11.79
63158;BMP280;49381;49.338;8.794;2022-09-20T00:31:23;100794.34;;;11.78
63158;BMP280;49381;49.338;8.794;2022-09-20T00:33:24;100782.63;;;11.88
63158;BMP280;49381;49.338;8.794;2022-09-20T00:35:24;100783.47;;;11.90
63158;BMP280;49381;49.338;8.794;2022-09-20T00:37:26;100786.72;;;11.76
63158;BMP280;49381;49.338;8.794;2022-09-20T00:39:26;100791.81;;;11.73
63158;BMP280;49381;49.338;8.794;2022-09-20T00:41:27;100801.06;;;11.70
63158;BMP280;49381;49.338;8.794;2022-09-20T00:43:36;100800.31;;;11.78
63158;BMP280;49381;49.338;8.794;2022-09-20T00:45:36;100807.94;;;11.80
63158;BMP280;49381;49.338;8.794;2022-09-20T00:47:39;100811.41;;;11.89
63158;BMP280;49381;49.338;8.794;2022-09-20T00:49:41;100815.69;;;11.94
63158;BMP280;49381;49.338;8.794;2022-09-20T00:51:44;100811.38;;;11.87
63158;BMP280;49381;49.338;8.794;2022-09-20T00:53:49;100808.81;;;11.83
63158;BMP280;49381;49.338;8.794;2022-09-20T00:55:52;100803.75;;;11.87
63158;BMP280;49381;49.338;8.794;2022-09-20T00:57:53;100791.91;;;11.88
63158;BMP280;49381;49.338;8.794;2022-09-20T00:59:54;100808.84;;;11.86
63158;BMP280;49381;49.338;8.794;2022-09-20T01:01:56;100806.25;;;11.81
63158;BMP280;49381;49.338;8.794;2022-09-20T01:03:58;100797.03;;;11.89
63158;BMP280;49381;49.338;8.794;2022-09-20T01:06:02;100803.84;;;11.96
63158;BMP280;49381;49.338;8.794;2022-09-20T01:08:03;100802.13;;;11.95
63158;BMP280;49381;49.338;8.794;2022-09-20T01:10:06;100808.03;;;11.88
63158;BMP280;49381;49.338;8.794;2022-09-20T01:12:10;100796.13;;;11.87
63158;BMP280;49381;49.338;8.794;2022-09-20T01:14:12;100802.97;;;11.94
63158;BMP280;49381;49.338;8.794;2022-09-20T01:16:14;100802.19;;;11.98
63158;BMP280;49381;49.338;8.794;2022-09-20T01:18:16;100793.75;;;12.04
63158;BMP280;49381;49.338;8.794;2022-09-20T01:20:20;100807.25;;;12.03
63158;BMP280;49381;49.338;8.794;2022-09-20T01:22:24;100800.50;;;12.02
63158;BMP280;49381;49.338;8.794;2022-09-20T01:24:31;100803.84;;;11.93
63158;BMP280;49381;49.338;8.794;2022-09-20T01:26:53;100793.69;;;11.98
63158;BMP280;49381;49.338;8.794;2022-09-20T01:29:02;100797.91;;;11.97
63158;BMP280;49381;49.338;8.794;2022-09-20T01:31:12;100807.97;;;11.84
63158;BMP280;49381;49.338;8.794;2022-09-20T01:33:20;100802.03;;;11.82
63158;BMP280;49381;49.338;8.794;2022-09-20T01:35:24;100803.72;;;11.80
63158;BMP280;49381;49.338;8.794;2022-09-20T01:37:26;100811.38;;;11.87
63158;BMP280;49381;49.338;8.794;2022-09-20T01:39:34;100806.34;;;11.92
63158;BMP280;49381;49.338;8.794;2022-09-20T01:41:38;100804.66;;;11.91
63158;BMP280;49381;49.338;8.794;2022-09-20T01:43:45;100813.97;;;11.90
63158;BMP280;49381;49.338;8.794;2022-09-20T01:45:48;100799.56;;;11.92
63158;BMP280;49381;49.338;8.794;2022-09-20T01:47:54;100804.59;;;11.88
63158;BMP280;49381;49.338;8.794;2022-09-20T01:50:04;100808.78;;;11.80
63158;BMP280;49381;49.338;8.794;2022-09-20T01:52:26;100801.16;;;11.80
63158;BMP280;49381;49.338;8.794;2022-09-20T01:54:51;100800.25;;;11.72
63158;BMP280;49381;49.338;8.794;2022-09-20T01:57:19;100802.81;;;11.77
63158;BMP280;49381;49.338;8.794;2022-09-20T01:59:43;100799.44;;;11.76
63158;BMP280;49381;49.338;8.794;2022-09-20T02:02:09;100796.84;;;11.70
63158;BMP280;49381;49.338;8.794;2022-09-20T02:04:57;100795.19;;;11.75
63158;BMP280;49381;49.338;8.794;2022-09-20T02:09:44;100801.97;;;11.73
63158;BMP280;49381;49.338;8.794;2022-09-20T02:11:57;100804.50;;;11.73
63158;BMP280;49381;49.338;8.794;2022-09-20T02:14:04;100808.66;;;11.65
63158;BMP280;49381;49.338;8.794;2022-09-20T02:18:52;100801.63;;;11.41
63158;BMP280;49381;49.338;8.794;2022-09-20T02:20:58;100815.97;;;11.37
63158;BMP280;49381;49.338;8.794;2022-09-20T02:23:12;100801.69;;;11.47
63158;BMP280;49381;49.338;8.794;2022-09-20T02:25:37;100808.31;;;11.36
63158;BMP280;49381;49.338;8.794;2022-09-20T02:27:51;100810.88;;;11.37
63158;BMP280;49381;49.338;8.794;2022-09-20T02:30:06;100803.31;;;11.39
63158;BMP280;49381;49.338;8.794;2022-09-20T02:32:22;100798.25;;;11.42
63158;BMP280;49381;49.338;8.794;2022-09-20T02:34:45;100794.88;;;11.43
63158;BMP280;49381;49.338;8.794;2022-09-20T02:37:01;100803.19;;;11.30
63158;BMP280;49381;49.338;8.794;2022-09-20T02:39:10;100793.09;;;11.36
63158;BMP280;49381;49.338;8.794;2022-09-20T02:41:40;100793.16;;;11.42
63158;BMP280;49381;49.338;8.794;2022-09-20T02:43:50;100793.16;;;11.42
63158;BMP280;49381;49.338;8.794;2022-09-20T02:46:00;100798.31;;;11.48
63158;BMP280;49381;49.338;8.794;2022-09-20T02:48:02;100801.72;;;11.50
63158;BMP280;49381;49.338;8.794;2022-09-20T02:50:27;100807.72;;;11.56
63158;BMP280;49381;49.338;8.794;2022-09-20T02:52:36;100798.34;;;11.51
63158;BMP280;49381;49.338;8.794;2022-09-20T02:54:45;100809.84;;;11.22
63158;BMP280;49381;49.338;8.794;2022-09-20T02:56:54;100809.16;;;11.33
63158;BMP280;49381;49.338;8.794;2022-09-20T02:59:02;100806.69;;;11.39
63158;BMP280;49381;49.338;8.794;2022-09-20T03:01:08;100806.72;;;11.42
63158;BMP280;49381;49.338;8.794;2022-09-20T03:03:16;100816.97;;;11.50
63158;BMP280;49381;49.338;8.794;2022-09-20T03:05:24;100805.13;;;11.52
63158;BMP280;49381;49.338;8.794;2022-09-20T03:07:32;100811.97;;;11.58
63158;BMP280;49381;49.338;8.794;2022-09-20T03:09:42;100809.44;;;11.60
63158;BMP280;49381;49.338;8.794;2022-09-20T03:11:50;100811.88;;;11.51
63158;BMP280;49381;49.338;8.794;2022-09-20T03:14:05;100818.59;;;11.48
63158;BMP280;49381;49.338;8.794;2022-09-20T03:16:15;100827.84;;;11.41
63158;BMP280;49381;49.338;8.794;2022-09-20T03:18:26;100826.88;;;11.30
63158;BMP280;49381;49.338;8.794;2022-09-20T03:20:34;100821.84;;;11.33
63158;BMP280;49381;49.338;8.794;2022-09-20T03:22:47;100826.75;;;11.23
63158;BMP280;49381;49.338;8.794;2022-09-20T03:25:01;100814.91;;;11.22
63158;BMP280;49381;49.338;8.794;2022-09-20T03:27:12;100827.66;;;11.24
63158;BMP280;49381;49.338;8.794;2022-09-20T03:29:24;100825.91;;;11.21
63158;BMP280;49381;49.338;8.794;2022-09-20T03:31:41;100826.69;;;11.16
63158;BMP280;49381;49.338;8.794;2022-09-20T03:33:52;100825.00;;;11.16
63158;BMP280;49381;49.338;8.794;2022-09-20T03:36:07;100827.66;;;11.24
63158;BMP280;49381;49.338;8.794;2022-09-20T03:38:21;100835.31;;;11.31
63158;BMP280;49381;49.338;8.794;2022-09-20T03:40:35;100832.88;;;11.37
63158;BMP280;49381;49.338;8.794;2022-09-20T03:42:45;100835.47;;;11.40
63158;BMP280;49381;49.338;8.794;2022-09-20T03:45:04;100836.19;;;11.33
63158;BMP280;49381;49.338;8.794;2022-09-20T03:47:16;100842.19;;;11.38
63158;BMP280;49381;49.338;8.794;2022-09-20T03:49:48;100840.44;;;11.34
63158;BMP280;49381;49.338;8.794;2022-09-20T03:51:59;100843.78;;;11.30
63158;BMP280;49381;49.338;8.794;2022-09-20T03:54:21;100849.53;;;11.17
63158;BMP280;49381;49.338;8.794;2022-09-20T03:59:05;100847.06;;;11.23
63158;BMP280;49381;49.338;8.794;2022-09-20T04:01:26;100849.53;;;11.16
63158;BMP280;49381;49.338;8.794;2022-09-20T04:03:34;100843.53;;;11.09
63158;BMP280;49381;49.338;8.794;2022-09-20T04:05:45;100846.94;;;11.13
63158;BMP280;49381;49.338;8.794;2022-09-20T04:07:54;100849.53;;;11.16
63158;BMP280;49381;49.338;8.794;2022-09-20T04:10:05;100830.88;;;11.11
63158;BMP280;49381;49.338;8.794;2022-09-20T04:12:21;100843.59;;;11.15
63158;BMP280;49381;49.338;8.794;2022-09-20T04:14:30;100838.59;;;11.23
63158;BMP280;49381;49.338;8.794;2022-09-20T04:16:38;100842.09;;;11.29
63158;BMP280;49381;49.338;8.794;2022-09-20T04:18:43;100841.13;;;11.21
63158;BMP280;49381;49.338;8.794;2022-09-20T04:20:47;100845.31;;;11.16
63158;BMP280;49381;49.338;8.794;2022-09-20T04:22:53;100847.78;;;11.10
63158;BMP280;49381;49.338;8.794;2022-09-20T04:24:59;100839.31;;;11.10
63158;BMP280;49381;49.338;8.794;2022-09-20T04:27:04;100856.34;;;11.20
63158;BMP280;49381;49.338;8.794;2022-09-20T04:29:21;100852.06;;;11.17
63158;BMP280;49381;49.338;8.794;2022-09-20T04:31:32;100849.59;;;11.23
63158;BMP280;49381;49.338;8.794;2022-09-20T04:33:37;100857.19;;;11.20
63158;BMP280;49381;49.338;8.794;2022-09-20T04:35:42;100850.47;;;11.24
63158;BMP280;49381;49.338;8.794;2022-09-20T04:37:45;100847.06;;;11.23
63158;BMP280;49381;49.338;8.794;2022-09-20T04:39:56;100858.03;;;11.19
63158;BMP280;49381;49.338;8.794;2022-09-20T04:42:20;100853.81;;;11.21
63158;BMP280;49381;49.338;8.794;2022-09-20T04:44:42;100864.03;;;11.24
63158;BMP280;49381;49.338;8.794;2022-09-20T04:49:35;100869.00;;;11.18
63158;BMP280;49381;49.338;8.794;2022-09-20T04:52:01;100866.56;;;11.24
63158;BMP280;49381;49.338;8.794;2022-09-20T04:54:36;100866.63;;;11.29
63158;BMP280;49381;49.338;8.794;2022-09-20T04:56:44;100865.66;;;11.19
63158;BMP280;49381;49.338;8.794;2022-09-20T04:59:02;100868.84;;;11.06
63158;BMP280;49381;49.338;8.794;2022-09-20T05:04:11;100883.19;;;11.03
63158;BMP280;49381;49.338;8.794;2022-09-20T05:06:44;100884.06;;;11.06
63158;BMP280;49381;49.338;8.794;2022-09-20T05:09:14;100883.16;;;10.99
63158;BMP280;49381;49.338;8.794;2022-09-20T05:11:34;100886.41;;;10.92
63158;BMP280;49381;49.338;8.794;2022-09-20T05:13:52;100880.38;;;10.82
63158;BMP280;49381;49.338;8.794;2022-09-20T05:15:58;100878.59;;;10.78
63158;BMP280;49381;49.338;8.794;2022-09-20T05:18:17;100885.44;;;10.82
63158;BMP280;49381;49.338;8.794;2022-09-20T05:20:48;100894.00;;;10.89
63158;BMP280;49381;49.338;8.794;2022-09-20T05:23:08;100893.97;;;10.87
63158;BMP280;49381;49.338;8.794;2022-09-20T05:27:52;100896.69;;;10.99
63158;BMP280;49381;49.338;8.794;2022-09-20T05:30:02;100897.47;;;10.95
63158;BMP280;49381;49.338;8.794;2022-09-20T05:32:07;100899.22;;;11.01
63158;BMP280;49381;49.338;8.794;2022-09-20T05:34:16;100903.41;;;10.97
63158;BMP280;49381;49.338;8.794;2022-09-20T05:36:25;100901.63;;;10.92
63158;BMP280;49381;49.338;8.794;2022-09-20T05:38:37;100906.00;;;11.02
63158;BMP280;49381;49.338;8.794;2022-09-20T05:40:53;100906.63;;;10.87
63158;BMP280;49381;49.338;8.794;2022-09-20T05:43:04;100914.94;;;10.78
63158;BMP280;49381;49.338;8.794;2022-09-20T05:45:21;100913.31;;;10.79
63158;BMP280;49381;49.338;8.794;2022-09-20T05:47:35;100919.25;;;10.83
63158;BMP280;49381;49.338;8.794;2022-09-20T05:49:43;100915.94;;;10.88
63158;BMP280;49381;49.338;8.794;2022-09-20T05:52:13;100916.88;;;10.93
63158;BMP280;49381;49.338;8.794;2022-09-20T05:54:24;100923.53;;;10.87
63158;BMP280;49381;49.338;8.794;2022-09-20T05:56:33;100918.59;;;10.94
63158;BMP280;49381;49.338;8.794;2022-09-20T05:58:50;100919.16;;;10.77
63158;BMP280;49381;49.338;8.794;2022-09-20T06:00:57;100910.63;;;10.71
63158;BMP280;49381;49.338;8.794;2022-09-20T06:03:04;100917.31;;;10.67
63158;BMP280;49381;49.338;8.794;2022-09-20T06:05:13;100925.78;;;10.66
63158;BMP280;49381;49.338;8.794;2022-09-20T06:07:20;100922.38;;;10.64
63158;BMP280;49381;49.338;8.794;2022-09-20T06:09:34;100919.78;;;10.61
63158;BMP280;49381;49.338;8.794;2022-09-20T06:11:46;100918.28;;;10.74
63158;BMP280;49381;49.338;8.794;2022-09-20T06:14:00;100916.78;;;10.86
63158;BMP280;49381;49.338;8.794;2022-09-20T06:16:12;100920.22;;;10.89
63158;BMP280;49381;49.338;8.794;2022-09-20T06:18:21;100917.75;;;10.94
63158;BMP280;49381;49.338;8.794;2022-09-20T06:20:27;100916.13;;;10.99
63158;BMP280;49381;49.338;8.794;2022-09-20T06:22:32;100921.22;;;11.00
63158;BMP280;49381;49.338;8.794;2022-09-20T06:24:36;100916.84;;;10.90
63158;BMP280;49381;49.338;8.794;2022-09-20T06:26:40;100916.97;;;11.01
63158;BMP280;49381;49.338;8.794;2022-09-20T06:28:45;100918.38;;;10.79
63158;BMP280;49381;49.338;8.794;2022-09-20T06:30:48;100921.91;;;10.92
63158;BMP280;49381;49.338;8.794;2022-09-20T06:32:58;100923.66;;;10.94
63158;BMP280;49381;49.338;8.794;2022-09-20T06:35:00;100926.16;;;10.93
63158;BMP280;49381;49.338;8.794;2022-09-20T06:37:09;100928.91;;;11.07
63158;BMP280;49381;49.338;8.794;2022-09-20T06:39:22;100925.59;;;11.13
63158;BMP280;49381;49.338;8.794;2022-09-20T06:41:25;100931.50;;;11.10
63158;BMP280;49381;49.338;8.794;2022-09-20T06:43:26;100928.06;;;11.07
63158;BMP280;49381;49.338;8.794;2022-09-20T06:45:27;100933.16;;;11.08
63158;BMP280;49381;49.338;8.794;2022-09-20T06:47:27;100939.81;;;11.01
63158;BMP280;49381;49.338;8.794;2022-09-20T06:49:29;100932.25;;;11.04
63158;BMP280;49381;49.338;8.794;2022-09-20T06:51:33;100935.56;;;11.00
63158;BMP280;49381;49.338;8.794;2022-09-20T06:53:36;100935.66;;;11.04
63158;BMP280;49381;49.338;8.794;2022-09-20T06:55:37;100932.28;;;11.05
63158;BMP280;49381;49.338;8.794;2022-09-20T06:57:38;100933.97;;;11.07
63158;BMP280;49381;49.338;8.794;2022-09-20T06:59:38;100935.66;;;11.05
63158;BMP280;49381;49.338;8.794;2022-09-20T07:01:39;100931.63;;;11.19
63158;BMP280;49381;49.338;8.794;2022-09-20T07:03:39;100929.16;;;11.24
63158;BMP280;49381;49.338;8.794;2022-09-20T07:05:41;100930.91;;;11.30
63158;BMP280;49381;49.338;8.794;2022-09-20T07:07:42;100929.22;;;11.32
63158;BMP280;49381;49.338;8.794;2022-09-20T07:09:42;100934.44;;;11.38
63158;BMP280;49381;49.338;8.794;2022-09-20T07:11:42;100932.91;;;11.51
63158;BMP280;49381;49.338;8.794;2022-09-20T07:13:43;100928.72;;;11.54
63158;BMP280;49381;49.338;8.794;2022-09-20T07:15:44;100927.16;;;11.66
63158;BMP280;49381;49.338;8.794;2022-09-20T07:17:44;100921.34;;;11.76
63158;BMP280;49381;49.338;8.794;2022-09-20T07:19:44;100928.16;;;11.79
63158;BMP280;49381;49.338;8.794;2022-09-20T07:21:46;100934.03;;;11.76
63158;BMP280;49381;49.338;8.794;2022-09-20T07:23:47;100941.53;;;11.67
63158;BMP280;49381;49.338;8.794;2022-09-20T07:25:47;100944.13;;;11.70
63158;BMP280;49381;49.338;8.794;2022-09-20T07:27:48;100950.16;;;11.78
63158;BMP280;49381;49.338;8.794;2022-09-20T07:29:49;100937.38;;;11.72
63158;BMP280;49381;49.338;8.794;2022-09-20T07:31:49;100934.03;;;11.76
63158;BMP280;49381;49.338;8.794;2022-09-20T07:33:50;100935.88;;;11.89
63158;BMP280;49381;49.338;8.794;2022-09-20T07:35:51;100935.94;;;11.96
63158;BMP280;49381;49.338;8.794;2022-09-20T07:37:56;100938.47;;;11.95
63158;BMP280;49381;49.338;8.794;2022-09-20T07:39:56;100944.41;;;11.97
63158;BMP280;49381;49.338;8.794;2022-09-20T07:41:57;100946.09;;;11.96
63158;BMP280;49381;49.338;8.794;2022-09-20T07:43:57;100946.94;;;11.97
63158;BMP280;49381;49.338;8.794;2022-09-20T07:45:57;100951.28;;;12.06
63158;BMP280;49381;49.338;8.794;2022-09-20T07:47:58;100953.06;;;12.13
63158;BMP280;49381;49.338;8.794;2022-09-20T07:49:58;100953.03;;;12.10
63158;BMP280;49381;49.338;8.794;2022-09-20T07:51:58;100946.34;;;12.21
63158;BMP280;49381;49.338;8.794;2022-09-20T07:54:00;100948.94;;;12.26
63158;BMP280;49381;49.338;8.794;2022-09-20T07:56:02;100946.53;;;12.40
63158;BMP280;49381;49.338;8.794;2022-09-20T07:58:03;100962.75;;;12.54
63158;BMP280;49381;49.338;8.794;2022-09-20T08:00:05;100956.91;;;12.65
63158;BMP280;49381;49.338;8.794;2022-09-20T08:02:06;100956.13;;;12.71
63158;BMP280;49381;49.338;8.794;2022-09-20T08:04:09;100952.81;;;12.78
63158;BMP280;49381;49.338;8.794;2022-09-20T08:06:11;100953.66;;;12.81
63158;BMP280;49381;49.338;8.794;2022-09-20T08:08:12;100962.19;;;12.86
63158;BMP280;49381;49.338;8.794;2022-09-20T08:10:13;100955.44;;;12.88
63158;BMP280;49381;49.338;8.794;2022-09-20T08:12:14;100954.59;;;12.96
63158;BMP280;49381;49.338;8.794;2022-09-20T08:14:16;100953.03;;;13.14
63158;BMP280;49381;49.338;8.794;2022-09-20T08:16:17;100957.41;;;13.33
63158;BMP280;49381;49.338;8.794;2022-09-20T08:18:17;100961.72;;;13.47
63158;BMP280;49381;49.338;8.794;2022-09-20T08:20:18;100955.75;;;13.48
63158;BMP280;49381;49.338;8.794;2022-09-20T08:22:18;100960.88;;;13.61
63158;BMP280;49381;49.338;8.794;2022-09-20T08:24:19;100960.03;;;13.61
63158;BMP280;49381;49.338;8.794;2022-09-20T08:26:22;100959.22;;;13.66
63158;BMP280;49381;49.338;8.794;2022-09-20T08:28:23;100960.97;;;13.79
63158;BMP280;49381;49.338;8.794;2022-09-20T08:30:23;100960.22;;;13.92
63158;BMP280;49381;49.338;8.794;2022-09-20T08:32:24;100958.50;;;14.06
63158;BMP280;49381;49.338;8.794;2022-09-20T08:34:26;100961.09;;;14.16
63158;BMP280;49381;49.338;8.794;2022-09-20T08:36:26;100953.47;;;14.33
63158;BMP280;49381;49.338;8.794;2022-09-20T08:38:27;100952.59;;;14.36
63158;BMP280;49381;49.338;8.794;2022-09-20T08:40:28;100958.56;;;14.23
63158;BMP280;49381;49.338;8.794;2022-09-20T08:42:33;100954.31;;;14.25
63158;BMP280;49381;49.338;8.794;2022-09-20T08:44:37;100961.09;;;14.26
63158;BMP280;49381;49.338;8.794;2022-09-20T08:46:43;100960.25;;;14.23
63158;BMP280;49381;49.338;8.794;2022-09-20T08:50:50;100951.78;;;14.55
63158;BMP280;49381;49.338;8.794;2022-09-20T08:52:53;100958.59;;;14.61
63158;BMP280;49381;49.338;8.794;2022-09-20T08:54:55;100947.50;;;14.71
63158;BMP280;49381;49.338;8.794;2022-09-20T08:56:55;100945.78;;;14.81
63158;BMP280;49381;49.338;8.794;2022-09-20T08:58:57;100955.19;;;14.82
63158;BMP280;49381;49.338;8.794;2022-09-20T09:00:57;100950.88;;;14.94
63158;BMP280;49381;49.338;8.794;2022-09-20T09:02:59;100944.94;;;15.05
63158;BMP280;49381;49.338;8.794;2022-09-20T09:05:15;100940.66;;;15.00
63158;BMP280;49381;49.338;8.794;2022-09-20T09:07:22;100948.34;;;15.07
63158;BMP280;49381;49.338;8.794;2022-09-20T09:09:25;100948.34;;;15.11
63158;BMP280;49381;49.338;8.794;2022-09-20T09:11:26;100950.03;;;15.11
63158;BMP280;49381;49.338;8.794;2022-09-20T09:13:31;100950.84;;;15.20
63158;BMP280;49381;49.338;8.794;2022-09-20T09:15:35;100938.94;;;15.22
63158;BMP280;49381;49.338;8.794;2022-09-20T09:17:36;100940.59;;;15.41
63158;BMP280;49381;49.338;8.794;2022-09-20T09:19:43;100943.94;;;15.50
63158;BMP280;49381;49.338;8.794;2022-09-20T09:21:43;100930.31;;;15.50
63158;BMP280;49381;49.338;8.794;2022-09-20T09:23:49;100933.69;;;15.58
63158;BMP280;49381;49.338;8.794;2022-09-20T09:25:50;100933.66;;;15.60
63158;BMP280;49381;49.338;8.794;2022-09-20T09:27:53;100931.97;;;15.67
63158;BMP280;49381;49.338;8.794;2022-09-20T09:29:55;100933.63;;;15.72
63158;BMP280;49381;49.338;8.794;2022-09-20T09:32:18;100930.19;;;15.79
63158;BMP280;49381;49.338;8.794;2022-09-20T09:34:23;100930.97;;;15.91
63158;BMP280;49381;49.338;8.794;2022-09-20T09:36:24;100927.50;;;16.01
63158;BMP280;49381;49.338;8.794;2022-09-20T09:38:27;100931.72;;;16.09
63158;BMP280;49381;49.338;8.794;2022-09-20T09:40:29;100933.44;;;16.10
63158;BMP280;49381;49.338;8.794;2022-09-20T09:42:29;100922.38;;;16.07
63158;BMP280;49381;49.338;8.794;2022-09-20T09:44:30;100936.88;;;16.01
63158;BMP280;49381;49.338;8.794;2022-09-20T09:46:33;100936.84;;;16.04
63158;BMP280;49381;49.338;8.794;2022-09-20T09:48:34;100931.72;;;16.07
63158;BMP280;49381;49.338;8.794;2022-09-20T09:50:35;100935.19;;;15.97
63158;BMP280;49381;49.338;8.794;2022-09-20T09:52:35;100924.06;;;16.04
63158;BMP280;49381;49.338;8.794;2022-09-20T09:54:37;100921.50;;;16.09
63158;BMP280;49381;49.338;8.794;2022-09-20T09:56:44;100927.50;;;16.07
63158;BMP280;49381;49.338;8.794;2022-09-20T09:58:58;100924.06;;;16.07
63158;BMP280;49381;49.338;8.794;2022-09-20T10:01:05;100930.88;;;16.05
63158;BMP280;49381;49.338;8.794;2022-09-20T10:03:25;100925.75;;;16.12
63158;BMP280;49381;49.338;8.794;2022-09-20T10:05:31;100924.00;;;16.21
63158;BMP280;49381;49.338;8.794;2022-09-20T10:07:35;100923.97;;;16.26
63158;BMP280;49381;49.338;8.794;2022-09-20T10:09:53;100923.94;;;16.24
63158;BMP280;49381;49.338;8.794;2022-09-20T10:12:08;100916.31;;;16.21
63158;BMP280;49381;49.338;8.794;2022-09-20T10:14:25;100917.03;;;16.36
63158;BMP280;49381;49.338;8.794;2022-09-20T10:16:39;100917.91;;;16.37
63158;BMP280;49381;49.338;8.794;2022-09-20T10:18:47;100917.19;;;16.14
63158;BMP280;49381;49.338;8.794;2022-09-20T10:21:03;100919.78;;;16.13
63158;BMP280;49381;49.338;8.794;2022-09-20T10:23:16;100919.13;;;15.74
63158;BMP280;49381;49.338;8.794;2022-09-20T10:25:28;100917.38;;;15.81
63158;BMP280;49381;49.338;8.794;2022-09-20T10:27:41;100923.28;;;15.93
63158;BMP280;49381;49.338;8.794;2022-09-20T10:29:56;100918.94;;;16.07
63158;BMP280;49381;49.338;8.794;2022-09-20T10:32:05;100912.91;;;16.19
63158;BMP280;49381;49.338;8.794;2022-09-20T10:34:23;100923.94;;;16.24
63158;BMP280;49381;49.338;8.794;2022-09-20T10:36:35;100913.66;;;16.33
63158;BMP280;49381;49.338;8.794;2022-09-20T10:38:44;100919.56;;;16.41
63158;BMP280;49381;49.338;8.794;2022-09-20T10:41:04;100912.78;;;16.34
63158;BMP280;49381;49.338;8.794;2022-09-20T10:43:08;100911.03;;;16.39
63158;BMP280;49381;49.338;8.794;2022-09-20T10:45:17;100908.41;;;16.51
63158;BMP280;49381;49.338;8.794;2022-09-20T10:47:18;100915.44;;;16.24
63158;BMP280;49381;49.338;8.794;2022-09-20T10:49:26;100900.78;;;16.43
63158;BMP280;49381;49.338;8.794;2022-09-20T10:51:39;100905.84;;;16.48
63158;BMP280;49381;49.338;8.794;2022-09-20T10:53:42;100903.19;;;16.61
63158;BMP280;49381;49.338;8.794;2022-09-20T10:55:51;100905.72;;;16.65
63158;BMP280;49381;49.338;8.794;2022-09-20T10:58:17;100905.16;;;16.30
63158;BMP280;49381;49.338;8.794;2022-09-20T11:00:23;100909.59;;;16.06
63158;BMP280;49381;49.338;8.794;2022-09-20T11:02:38;100919.03;;;15.93
63158;BMP280;49381;49.338;8.794;2022-09-20T11:05:00;100919.25;;;15.57
63158;BMP280;49381;49.338;8.794;2022-09-20T11:07:09;100918.34;;;15.63
63158;BMP280;49381;49.338;8.794;2022-09-20T11:09:14;100909.72;;;15.82
63158;BMP280;49381;49.338;8.794;2022-09-20T11:11:18;100918.41;;;15.49
63158;BMP280;49381;49.338;8.794;2022-09-20T11:13:25;100915.00;;;15.51
63158;BMP280;49381;49.338;8.794;2022-09-20T11:15:29;100914.97;;;15.61
63158;BMP280;49381;49.338;8.794;2022-09-20T11:17:35;100909.81;;;15.64
63158;BMP280;49381;49.338;8.794;2022-09-20T11:19:46;100918.34;;;15.66
63158;BMP280;49381;49.338;8.794;2022-09-20T11:21:52;100920.06;;;15.58
63158;BMP280;49381;49.338;8.794;2022-09-20T11:23:59;100913.13;;;15.80
63158;BMP280;49381;49.338;8.794;2022-09-20T11:26:06;100913.06;;;15.96
63158;BMP280;49381;49.338;8.794;2022-09-20T11:28:11;100908.75;;;15.99
63158;BMP280;49381;49.338;8.794;2022-09-20T11:30:15;100913.78;;;16.17
63158;BMP280;49381;49.338;8.794;2022-09-20T11:32:20;100915.59;;;15.94
63158;BMP280;49381;49.338;8.794;2022-09-20T11:34:25;100911.41;;;15.84
63158;BMP280;49381;49.338;8.794;2022-09-20T11:36:30;100908.72;;;16.11
63158;BMP280;49381;49.338;8.794;2022-09-20T11:38:37;100914.63;;;16.14
63158;BMP280;49381;49.338;8.794;2022-09-20T11:40:44;100913.75;;;16.21
63158;BMP280;49381;49.338;8.794;2022-09-20T11:42:47;100912.09;;;16.13
63158;BMP280;49381;49.338;8.794;2022-09-20T11:44:49;100915.63;;;15.91
63158;BMP280;49381;49.338;8.794;2022-09-20T11:46:53;100917.34;;;15.85
63158;BMP280;49381;49.338;8.794;2022-09-20T11:48:59;100919.09;;;15.83
63158;BMP280;49381;49.338;8.794;2022-09-20T11:51:25;100913.16;;;15.78
63158;BMP280;49381;49.338;8.794;2022-09-20T11:53:41;100916.53;;;15.80
63158;BMP280;49381;49.338;8.794;2022-09-20T11:55:53;100922.50;;;15.79
63158;BMP280;49381;49.338;8.794;2022-09-20T11:57:59;100919.19;;;15.59
63158;BMP280;49381;49.338;8.794;2022-09-20T12:00:01;100915.81;;;15.59
63158;BMP280;49381;49.338;8.794;2022-09-20T12:02:04;100925.25;;;15.35
63158;BMP280;49381;49.338;8.794;2022-09-20T12:04:21;100928.72;;;15.31
63158;BMP280;49381;49.338;8.794;2022-09-20T12:06:28;100929.56;;;15.26
63158;BMP280;49381;49.338;8.794;2022-09-20T12:08:32;100924.47;;;15.15
63158;BMP280;49381;49.338;8.794;2022-09-20T12:10:35;100925.25;;;15.35
63158;BMP280;49381;49.338;8.794;2022-09-20T12:12:38;100927.88;;;15.26
63158;BMP280;49381;49.338;8.794;2022-09-20T12:14:40;100931.22;;;15.38
63158;BMP280;49381;49.338;8.794;2022-09-20T12:16:42;100916.72;;;15.45
63158;BMP280;49381;49.338;8.794;2022-09-20T12:19:00;100931.22;;;15.38
63158;BMP280;49381;49.338;8.794;2022-09-20T12:21:11;100930.38;;;15.41
63158;BMP280;49381;49.338;8.794;2022-09-20T12:26:00;100921.78;;;15.51